sensor_id;sensor_type;location;lat;lon;timestamp;temperature;humidity
20288;DHT22;10303;51.960;8.372;2022-11-23T00:01:35;11.40;99.90
20288;DHT22;10303;51.960;8.372;2022-11-23T00:04:15;11.50;99.90
20288;DHT22;10303;51.960;8.372;2022-11-23T00:06:42;11.50;99.90
20288;DHT22;10303;51.960;8.372;2022-11-23T00:09:09;11.50;99.90
20288;DHT22;10303;51.960;8.372;2022-11-23T00:11:43;11.40;99.90
20288;DHT22;10303;51.960;8.372;2022-11-23T00:14:34;11.20;99.90
20288;DHT22;10303;51.960;8.372;2022-11-23T00:17:01;11.40;99.90
20288;DHT22;10303;51.960;8.372;2022-11-23T00:19:27;11.40;99.90
20288;DHT22;10303;51.960;8.372;2022-11-23T00:21:59;11.40;99.90
20288;DHT22;10303;51.960;8.372;2022-11-23T00:24:29;11.40;99.90
20288;DHT22;10303;51.960;8.372;2022-11-23T00:26:55;11.40;99.90
20288;DHT22;10303;51.960;8.372;2022-11-23T00:29:21;11.40;99.90
20288;DHT22;10303;51.960;8.372;2022-11-23T00:31:47;11.40;99.90
20288;DHT22;10303;51.960;8.372;2022-11-23T00:34:14;11.40;99.90
20288;DHT22;10303;51.960;8.372;2022-11-23T00:36:41;11.40;99.90
20288;DHT22;10303;51.960;8.372;2022-11-23T00:39:07;11.40;99.90
20288;DHT22;10303;51.960;8.372;2022-11-23T00:47:32;11.30;99.90
20288;DHT22;10303;51.960;8.372;2022-11-23T00:49:58;11.30;99.90
20288;DHT22;10303;51.960;8.372;2022-11-23T00:58:01;11.40;99.90
20288;DHT22;10303;51.960;8.372;2022-11-23T01:00:31;11.40;99.90
20288;DHT22;10303;51.960;8.372;2022-11-23T01:03:22;11.40;99.90
20288;DHT22;10303;51.960;8.372;2022-11-23T01:06:20;11.40;99.90
20288;DHT22;10303;51.960;8.372;2022-11-23T01:09:20;11.40;99.90
20288;DHT22;10303;51.960;8.372;2022-11-23T01:11:49;11.40;99.90
20288;DHT22;10303;51.960;8.372;2022-11-23T01:14:15;11.50;99.90
20288;DHT22;10303;51.960;8.372;2022-11-23T01:16:46;11.50;99.90
20288;DHT22;10303;51.960;8.372;2022-11-23T01:19:15;11.40;99.90
20288;DHT22;10303;51.960;8.372;2022-11-23T01:21:48;11.50;99.90
20288;DHT22;10303;51.960;8.372;2022-11-23T01:24:20;11.50;99.90
20288;DHT22;10303;51.960;8.372;2022-11-23T01:27:11;11.50;99.90
20288;DHT22;10303;51.960;8.372;2022-11-23T01:29:37;11.50;99.90
20288;DHT22;10303;51.960;8.372;2022-11-23T01:32:04;11.50;99.90
20288;DHT22;10303;51.960;8.372;2022-11-23T01:40:17;11.60;99.90
20288;DHT22;10303;51.960;8.372;2022-11-23T01:42:55;11.60;99.90
20288;DHT22;10303;51.960;8.372;2022-11-23T01:45:40;11.60;99.90
20288;DHT22;10303;51.960;8.372;2022-11-23T01:48:24;11.60;99.90
20288;DHT22;10303;51.960;8.372;2022-11-23T01:51:15;11.60;99.90
20288;DHT22;10303;51.960;8.372;2022-11-23T01:54:05;11.60;99.90
20288;DHT22;10303;51.960;8.372;2022-11-23T01:57:08;11.60;99.90
20288;DHT22;10303;51.960;8.372;2022-11-23T01:59:42;11.60;99.90
20288;DHT22;10303;51.960;8.372;2022-11-23T02:02:14;11.60;99.90
20288;DHT22;10303;51.960;8.372;2022-11-23T02:04:52;11.60;99.90
20288;DHT22;10303;51.960;8.372;2022-11-23T02:07:22;11.60;99.90
20288;DHT22;10303;51.960;8.372;2022-11-23T02:09:51;11.70;99.90
20288;DHT22;10303;51.960;8.372;2022-11-23T02:12:17;11.70;99.90
20288;DHT22;10303;51.960;8.372;2022-11-23T02:14:44;11.70;99.90
20288;DHT22;10303;51.960;8.372;2022-11-23T02:17:11;11.70;99.90
20288;DHT22;10303;51.960;8.372;2022-11-23T02:20:00;11.70;99.90
20288;DHT22;10303;51.960;8.372;2022-11-23T02:26:21;11.70;99.90
20288;DHT22;10303;51.960;8.372;2022-11-23T02:31:48;11.70;99.90
20288;DHT22;10303;51.960;8.372;2022-11-23T02:34:16;11.80;99.90
20288;DHT22;10303;51.960;8.372;2022-11-23T02:37:04;11.80;99.90
20288;DHT22;10303;51.960;8.372;2022-11-23T02:39:51;11.80;99.90
20288;DHT22;10303;51.960;8.372;2022-11-23T02:45:23;11.90;99.90
20288;DHT22;10303;51.960;8.372;2022-11-23T02:48:08;11.90;99.90
20288;DHT22;10303;51.960;8.372;2022-11-23T02:50:37;11.90;99.90
20288;DHT22;10303;51.960;8.372;2022-11-23T02:53:05;12.00;99.90
20288;DHT22;10303;51.960;8.372;2022-11-23T02:55:31;12.00;99.90
20288;DHT22;10303;51.960;8.372;2022-11-23T02:57:59;12.00;99.90
20288;DHT22;10303;51.960;8.372;2022-11-23T03:00:29;12.00;99.90
20288;DHT22;10303;51.960;8.372;2022-11-23T03:02:59;12.00;99.90
20288;DHT22;10303;51.960;8.372;2022-11-23T03:05:27;12.00;99.90
20288;DHT22;10303;51.960;8.372;2022-11-23T03:07:53;12.10;99.90
20288;DHT22;10303;51.960;8.372;2022-11-23T03:10:19;12.10;99.90
20288;DHT22;10303;51.960;8.372;2022-11-23T03:12:53;12.10;99.90
20288;DHT22;10303;51.960;8.372;2022-11-23T03:15:20;12.10;99.90
20288;DHT22;10303;51.960;8.372;2022-11-23T03:17:47;12.20;99.90
20288;DHT22;10303;51.960;8.372;2022-11-23T03:20:15;12.20;99.90
20288;DHT22;10303;51.960;8.372;2022-11-23T03:22:44;12.10;99.90
20288;DHT22;10303;51.960;8.372;2022-11-23T03:25:12;12.20;99.90
20288;DHT22;10303;51.960;8.372;2022-11-23T03:27:39;12.20;99.90
20288;DHT22;10303;51.960;8.372;2022-11-23T03:30:30;12.20;99.90
20288;DHT22;10303;51.960;8.372;2022-11-23T03:32:57;12.10;99.90
20288;DHT22;10303;51.960;8.372;2022-11-23T03:35:23;12.20;99.90
20288;DHT22;10303;51.960;8.372;2022-11-23T03:38:08;12.20;99.90
20288;DHT22;10303;51.960;8.372;2022-11-23T03:40:35;12.20;99.90
20288;DHT22;10303;51.960;8.372;2022-11-23T03:43:15;12.20;99.90
20288;DHT22;10303;51.960;8.372;2022-11-23T03:48:26;12.20;99.90
20288;DHT22;10303;51.960;8.372;2022-11-23T03:50:55;12.20;99.90
20288;DHT22;10303;51.960;8.372;2022-11-23T03:53:21;12.20;99.90
20288;DHT22;10303;51.960;8.372;2022-11-23T03:55:49;12.20;99.90
20288;DHT22;10303;51.960;8.372;2022-11-23T03:58:20;12.20;99.90
20288;DHT22;10303;51.960;8.372;2022-11-23T04:00:47;12.20;99.90
20288;DHT22;10303;51.960;8.372;2022-11-23T04:03:14;12.20;99.90
20288;DHT22;10303;51.960;8.372;2022-11-23T04:05:59;12.20;99.90
20288;DHT22;10303;51.960;8.372;2022-11-23T04:08:45;12.20;99.90
20288;DHT22;10303;51.960;8.372;2022-11-23T04:11:18;12.20;99.90
20288;DHT22;10303;51.960;8.372;2022-11-23T04:13:48;12.20;99.90
20288;DHT22;10303;51.960;8.372;2022-11-23T04:16:14;12.10;99.90
20288;DHT22;10303;51.960;8.372;2022-11-23T04:18:40;12.10;99.90
20288;DHT22;10303;51.960;8.372;2022-11-23T04:21:11;12.30;99.90
20288;DHT22;10303;51.960;8.372;2022-11-23T04:23:37;12.10;99.90
20288;DHT22;10303;51.960;8.372;2022-11-23T04:26:06;12.10;99.90
20288;DHT22;10303;51.960;8.372;2022-11-23T04:28:33;12.10;99.90
20288;DHT22;10303;51.960;8.372;2022-11-23T04:31:00;12.10;99.90
20288;DHT22;10303;51.960;8.372;2022-11-23T04:33:44;12.10;99.90
20288;DHT22;10303;51.960;8.372;2022-11-23T04:36:11;12.00;99.90
20288;DHT22;10303;51.960;8.372;2022-11-23T04:38:42;12.00;99.90
20288;DHT22;10303;51.960;8.372;2022-11-23T04:41:09;13.40;99.90
20288;DHT22;10303;51.960;8.372;2022-11-23T04:43:38;12.00;99.90
20288;DHT22;10303;51.960;8.372;2022-11-23T04:46:05;12.00;99.90
20288;DHT22;10303;51.960;8.372;2022-11-23T04:48:31;12.00;99.90
20288;DHT22;10303;51.960;8.372;2022-11-23T04:50:58;12.00;99.90
20288;DHT22;10303;51.960;8.372;2022-11-23T04:53:33;12.00;99.90
20288;DHT22;10303;51.960;8.372;2022-11-23T04:56:04;11.90;99.90
20288;DHT22;10303;51.960;8.372;2022-11-23T04:58:35;11.90;99.90
20288;DHT22;10303;51.960;8.372;2022-11-23T05:01:08;11.90;99.90
20288;DHT22;10303;51.960;8.372;2022-11-23T05:04:23;12.40;99.90
20288;DHT22;10303;51.960;8.372;2022-11-23T05:06:49;11.90;99.90
20288;DHT22;10303;51.960;8.372;2022-11-23T05:09:18;11.80;99.90
20288;DHT22;10303;51.960;8.372;2022-11-23T05:12:06;11.80;99.90
20288;DHT22;10303;51.960;8.372;2022-11-23T05:14:34;11.80;99.90
20288;DHT22;10303;51.960;8.372;2022-11-23T05:17:10;11.80;99.90
20288;DHT22;10303;51.960;8.372;2022-11-23T05:19:39;11.80;99.90
20288;DHT22;10303;51.960;8.372;2022-11-23T05:22:07;10.70;99.90
20288;DHT22;10303;51.960;8.372;2022-11-23T05:24:35;11.80;99.90
20288;DHT22;10303;51.960;8.372;2022-11-23T05:27:07;11.70;99.90
20288;DHT22;10303;51.960;8.372;2022-11-23T05:29:33;11.70;99.90
20288;DHT22;10303;51.960;8.372;2022-11-23T05:32:05;12.60;99.90
20288;DHT22;10303;51.960;8.372;2022-11-23T05:34:34;11.80;99.90
20288;DHT22;10303;51.960;8.372;2022-11-23T05:37:10;11.80;99.90
20288;DHT22;10303;51.960;8.372;2022-11-23T05:39:53;11.80;99.90
20288;DHT22;10303;51.960;8.372;2022-11-23T05:42:20;11.80;99.90
20288;DHT22;10303;51.960;8.372;2022-11-23T05:44:47;11.70;99.90
20288;DHT22;10303;51.960;8.372;2022-11-23T05:47:19;11.80;99.90
20288;DHT22;10303;51.960;8.372;2022-11-23T05:49:47;11.80;99.90
20288;DHT22;10303;51.960;8.372;2022-11-23T05:52:17;11.80;99.90
20288;DHT22;10303;51.960;8.372;2022-11-23T05:54:45;11.80;99.90
20288;DHT22;10303;51.960;8.372;2022-11-23T05:57:13;11.80;99.90
20288;DHT22;10303;51.960;8.372;2022-11-23T05:59:42;11.80;99.90
20288;DHT22;10303;51.960;8.372;2022-11-23T06:02:14;11.70;99.90
20288;DHT22;10303;51.960;8.372;2022-11-23T06:04:43;11.80;99.90
20288;DHT22;10303;51.960;8.372;2022-11-23T06:07:14;11.80;99.90
20288;DHT22;10303;51.960;8.372;2022-11-23T06:10:06;11.80;99.90
20288;DHT22;10303;51.960;8.372;2022-11-23T06:12:36;10.60;99.90
20288;DHT22;10303;51.960;8.372;2022-11-23T06:15:06;11.80;99.90
20288;DHT22;10303;51.960;8.372;2022-11-23T06:17:36;11.80;99.90
20288;DHT22;10303;51.960;8.372;2022-11-23T06:20:07;11.80;99.90
20288;DHT22;10303;51.960;8.372;2022-11-23T06:22:39;11.80;99.90
20288;DHT22;10303;51.960;8.372;2022-11-23T06:25:07;11.40;99.90
20288;DHT22;10303;51.960;8.372;2022-11-23T06:30:24;11.80;99.90
20288;DHT22;10303;51.960;8.372;2022-11-23T06:33:02;11.80;99.90
20288;DHT22;10303;51.960;8.372;2022-11-23T06:35:32;11.80;99.90
20288;DHT22;10303;51.960;8.372;2022-11-23T06:37:59;11.70;99.90
20288;DHT22;10303;51.960;8.372;2022-11-23T06:40:25;11.80;99.90
20288;DHT22;10303;51.960;8.372;2022-11-23T06:43:19;11.80;99.90
20288;DHT22;10303;51.960;8.372;2022-11-23T07:33:11;11.60;99.90
20288;DHT22;10303;51.960;8.372;2022-11-23T07:45:06;11.60;99.90
20288;DHT22;10303;51.960;8.372;2022-11-23T08:22:30;11.70;99.90
20288;DHT22;10303;51.960;8.372;2022-11-23T08:28:01;11.80;99.90
20288;DHT22;10303;51.960;8.372;2022-11-23T08:46:29;12.00;99.90
20288;DHT22;10303;51.960;8.372;2022-11-23T08:56:11;12.10;99.90
20288;DHT22;10303;51.960;8.372;2022-11-23T09:04:33;12.40;99.90
20288;DHT22;10303;51.960;8.372;2022-11-23T09:10:05;12.60;99.90
20288;DHT22;10303;51.960;8.372;2022-11-23T09:12:46;12.70;99.90
20288;DHT22;10303;51.960;8.372;2022-11-23T10:26:53;13.50;99.90
20288;DHT22;10303;51.960;8.372;2022-11-23T10:29:32;13.90;99.90
20288;DHT22;10303;51.960;8.372;2022-11-23T10:38:57;14.00;99.90
20288;DHT22;10303;51.960;8.372;2022-11-23T10:41:29;14.00;99.90
20288;DHT22;10303;51.960;8.372;2022-11-23T10:44:11;14.10;99.90
20288;DHT22;10303;51.960;8.372;2022-11-23T10:46:41;14.20;99.90
20288;DHT22;10303;51.960;8.372;2022-11-23T10:55:05;14.80;99.90
20288;DHT22;10303;51.960;8.372;2022-11-23T10:57:42;15.00;99.90
20288;DHT22;10303;51.960;8.372;2022-11-23T11:02:56;15.70;99.90
20288;DHT22;10303;51.960;8.372;2022-11-23T11:05:38;16.10;99.90
20288;DHT22;10303;51.960;8.372;2022-11-23T11:08:20;17.10;99.90
20288;DHT22;10303;51.960;8.372;2022-11-23T11:11:32;16.90;99.90
20288;DHT22;10303;51.960;8.372;2022-11-23T11:14:20;16.90;98.30
20288;DHT22;10303;51.960;8.372;2022-11-23T11:17:28;17.40;97.30
20288;DHT22;10303;51.960;8.372;2022-11-23T11:20:32;17.60;93.50
20288;DHT22;10303;51.960;8.372;2022-11-23T11:23:15;17.60;92.40
20288;DHT22;10303;51.960;8.372;2022-11-23T11:25:47;17.60;93.70
20288;DHT22;10303;51.960;8.372;2022-11-23T11:28:42;17.50;94.40
20288;DHT22;10303;51.960;8.372;2022-11-23T11:37:44;18.00;92.70
20288;DHT22;10303;51.960;8.372;2022-11-23T11:40:47;17.60;91.90
20288;DHT22;10303;51.960;8.372;2022-11-23T11:43:53;18.50;90.80
20288;DHT22;10303;51.960;8.372;2022-11-23T11:46:32;18.60;89.70
20288;DHT22;10303;51.960;8.372;2022-11-23T11:49:25;18.70;90.00
20288;DHT22;10303;51.960;8.372;2022-11-23T11:52:42;18.80;89.50
20288;DHT22;10303;51.960;8.372;2022-11-23T11:55:55;18.90;87.80
20288;DHT22;10303;51.960;8.372;2022-11-23T11:59:27;19.00;86.90
20288;DHT22;10303;51.960;8.372;2022-11-23T12:11:23;19.20;85.60
20288;DHT22;10303;51.960;8.372;2022-11-23T12:13:58;19.10;85.00
20288;DHT22;10303;51.960;8.372;2022-11-23T12:25:29;19.40;85.50
20288;DHT22;10303;51.960;8.372;2022-11-23T12:31:29;19.30;82.00
20288;DHT22;10303;51.960;8.372;2022-11-23T12:34:20;19.10;80.60
20288;DHT22;10303;51.960;8.372;2022-11-23T12:53:28;19.10;86.20
20288;DHT22;10303;51.960;8.372;2022-11-23T12:57:03;18.20;82.60
20288;DHT22;10303;51.960;8.372;2022-11-23T13:00:14;19.20;77.60
20288;DHT22;10303;51.960;8.372;2022-11-23T13:24:00;18.90;76.60
20288;DHT22;10303;51.960;8.372;2022-11-23T13:26:27;18.80;79.10
20288;DHT22;10303;51.960;8.372;2022-11-23T13:28:57;18.80;76.40
20288;DHT22;10303;51.960;8.372;2022-11-23T13:38:17;18.30;76.90
20288;DHT22;10303;51.960;8.372;2022-11-23T13:40:56;18.20;78.00
20288;DHT22;10303;51.960;8.372;2022-11-23T13:43:29;18.00;76.70
20288;DHT22;10303;51.960;8.372;2022-11-23T13:46:23;17.90;76.30
20288;DHT22;10303;51.960;8.372;2022-11-23T13:49:45;17.70;76.60
20288;DHT22;10303;51.960;8.372;2022-11-23T13:53:32;17.60;77.20
20288;DHT22;10303;51.960;8.372;2022-11-23T13:56:37;17.40;77.20
20288;DHT22;10303;51.960;8.372;2022-11-23T13:59:32;17.30;78.00
20288;DHT22;10303;51.960;8.372;2022-11-23T14:03:42;17.10;77.50
20288;DHT22;10303;51.960;8.372;2022-11-23T14:10:24;16.80;78.50
20288;DHT22;10303;51.960;8.372;2022-11-23T14:16:10;16.60;79.30
20288;DHT22;10303;51.960;8.372;2022-11-23T14:19:26;16.60;79.20
20288;DHT22;10303;51.960;8.372;2022-11-23T14:35:17;16.30;80.50
20288;DHT22;10303;51.960;8.372;2022-11-23T14:41:38;16.20;80.30
20288;DHT22;10303;51.960;8.372;2022-11-23T14:44:12;16.10;79.80
20288;DHT22;10303;51.960;8.372;2022-11-23T14:47:02;16.00;80.30
20288;DHT22;10303;51.960;8.372;2022-11-23T14:49:30;16.00;80.50
20288;DHT22;10303;51.960;8.372;2022-11-23T14:51:57;15.90;80.70
20288;DHT22;10303;51.960;8.372;2022-11-23T14:54:25;15.90;80.90
20288;DHT22;10303;51.960;8.372;2022-11-23T14:56:58;15.80;81.00
20288;DHT22;10303;51.960;8.372;2022-11-23T14:59:36;15.70;80.80
20288;DHT22;10303;51.960;8.372;2022-11-23T15:02:17;15.70;81.20
20288;DHT22;10303;51.960;8.372;2022-11-23T15:07:27;15.50;81.50
20288;DHT22;10303;51.960;8.372;2022-11-23T15:12:46;15.40;81.60
20288;DHT22;10303;51.960;8.372;2022-11-23T15:15:27;15.30;82.50
20288;DHT22;10303;51.960;8.372;2022-11-23T15:17:59;15.20;81.70
20288;DHT22;10303;51.960;8.372;2022-11-23T15:20:43;15.10;81.60
20288;DHT22;10303;51.960;8.372;2022-11-23T15:23:22;15.00;81.70
20288;DHT22;10303;51.960;8.372;2022-11-23T15:25:55;14.90;81.50
20288;DHT22;10303;51.960;8.372;2022-11-23T15:29:25;14.80;81.70
20288;DHT22;10303;51.960;8.372;2022-11-23T15:31:52;13.60;80.90
20288;DHT22;10303;51.960;8.372;2022-11-23T15:34:26;14.60;81.90
20288;DHT22;10303;51.960;8.372;2022-11-23T15:37:03;14.50;82.30
20288;DHT22;10303;51.960;8.372;2022-11-23T15:39:29;14.30;82.20
20288;DHT22;10303;51.960;8.372;2022-11-23T15:41:56;14.20;83.00
20288;DHT22;10303;51.960;8.372;2022-11-23T15:44:25;14.20;83.40
20288;DHT22;10303;51.960;8.372;2022-11-23T15:50:12;13.80;83.80
20288;DHT22;10303;51.960;8.372;2022-11-23T15:52:41;14.00;83.90
20288;DHT22;10303;51.960;8.372;2022-11-23T15:55:13;13.90;84.50
20288;DHT22;10303;51.960;8.372;2022-11-23T15:57:42;13.80;84.80
20288;DHT22;10303;51.960;8.372;2022-11-23T16:00:20;13.70;85.40
20288;DHT22;10303;51.960;8.372;2022-11-23T16:08:42;13.60;84.20
20288;DHT22;10303;51.960;8.372;2022-11-23T16:14:17;13.40;84.20
20288;DHT22;10303;51.960;8.372;2022-11-23T16:31:56;13.00;84.50
20288;DHT22;10303;51.960;8.372;2022-11-23T16:34:28;12.90;84.80
20288;DHT22;10303;51.960;8.372;2022-11-23T16:37:02;12.80;85.30
20288;DHT22;10303;51.960;8.372;2022-11-23T16:39:32;12.70;84.80
20288;DHT22;10303;51.960;8.372;2022-11-23T17:04:09;12.30;85.50
20288;DHT22;10303;51.960;8.372;2022-11-23T17:06:38;12.20;85.90
20288;DHT22;10303;51.960;8.372;2022-11-23T17:09:10;12.10;86.20
20288;DHT22;10303;51.960;8.372;2022-11-23T17:11:41;12.10;86.40
20288;DHT22;10303;51.960;8.372;2022-11-23T17:14:18;11.20;86.10
20288;DHT22;10303;51.960;8.372;2022-11-23T17:16:51;11.20;85.80
20288;DHT22;10303;51.960;8.372;2022-11-23T17:22:17;11.90;86.60
20288;DHT22;10303;51.960;8.372;2022-11-23T17:24:48;11.80;87.00
20288;DHT22;10303;51.960;8.372;2022-11-23T17:27:41;10.90;87.20
20288;DHT22;10303;51.960;8.372;2022-11-23T17:36:53;11.70;88.10
20288;DHT22;10303;51.960;8.372;2022-11-23T17:39:24;11.70;88.80
20288;DHT22;10303;51.960;8.372;2022-11-23T17:41:57;11.70;88.40
20288;DHT22;10303;51.960;8.372;2022-11-23T17:44:33;11.60;89.40
20288;DHT22;10303;51.960;8.372;2022-11-23T17:47:01;11.60;89.50
20288;DHT22;10303;51.960;8.372;2022-11-23T17:49:33;11.60;89.50
20288;DHT22;10303;51.960;8.372;2022-11-23T17:52:15;11.60;89.90
20288;DHT22;10303;51.960;8.372;2022-11-23T18:09:03;11.60;90.40
20288;DHT22;10303;51.960;8.372;2022-11-23T18:11:32;11.80;90.90
20288;DHT22;10303;51.960;8.372;2022-11-23T18:14:00;11.60;91.00
20288;DHT22;10303;51.960;8.372;2022-11-23T18:16:37;11.60;91.10
20288;DHT22;10303;51.960;8.372;2022-11-23T20:34:39;11.00;96.60
20288;DHT22;10303;51.960;8.372;2022-11-23T23:39:02;11.00;99.60
20288;DHT22;10303;51.960;8.372;2022-11-23T23:44:32;11.00;99.90
20288;DHT22;10303;51.960;8.372;2022-11-23T23:49:46;10.90;99.90
20288;DHT22;10303;51.960;8.372;2022-11-23T23:58:45;10.80;99.60
